Time;durP1;ratioP1;P1;durP2;ratioP2;P2;SDS_P1;SDS_P2;PMS_P1;PMS_P2;Temp;Humidity;BMP_temperature;BMP_pressure;BME280_temperature;BME280_humidity;BME280_pressure;Samples;Min_cycle;Max_cycle;Signal;HPM_P1;HPM_P2
2022/03/31 00:01:31;;;;;;;33.63;18.77;;;;;;;13.79;64.75;99554.72;5032767;28;20042;-63
2022/03/31 00:03:57;;;;;;;26.67;16.58;;;;;;;13.77;64.76;99556.66;5032656;28;20053;-63
2022/03/31 00:06:24;;;;;;;32.95;17.63;;;;;;;13.77;64.98;99556.66;5032805;28;20041;-64
2022/03/31 00:08:51;;;;;;;30.67;16.42;;;;;;;13.73;65.01;99552.63;5030734;28;20045;-63
2022/03/31 00:11:18;;;;;;;30.25;17.02;;;;;;;13.75;64.94;99550.69;5032669;28;20045;-64
2022/03/31 00:13:45;;;;;;;27.65;17.20;;;;;;;13.74;64.99;99535.00;5032497;28;20050;-64
2022/03/31 00:16:12;;;;;;;32.28;16.83;;;;;;;13.73;65.27;99542.09;5032585;28;20408;-64
2022/03/31 00:18:39;;;;;;;34.03;18.00;;;;;;;13.72;65.37;99543.03;5031773;28;20049;-63
2022/03/31 00:21:06;;;;;;;31.17;17.83;;;;;;;13.74;65.56;99548.19;5032596;28;20049;-64
2022/03/31 00:23:36;;;;;;;32.92;17.38;;;;;;;13.70;65.78;99537.91;5031834;28;20049;-63
2022/03/31 00:26:04;;;;;;;31.83;18.75;;;;;;;13.71;65.86;99538.75;5031633;28;20049;-64
2022/03/31 00:28:30;;;;;;;35.38;17.27;;;;;;;13.70;66.06;99539.75;5032495;28;20045;-64
2022/03/31 00:30:57;;;;;;;31.88;18.25;;;;;;;13.70;65.91;99540.56;5032452;28;20049;-64
2022/03/31 00:33:24;;;;;;;35.50;19.25;;;;;;;13.71;66.10;99533.47;5032245;28;20132;-63
2022/03/31 00:35:50;;;;;;;34.67;18.25;;;;;;;13.69;66.63;99538.88;5032288;28;20049;-63
2022/03/31 00:38:17;;;;;;;32.70;17.92;;;;;;;13.67;66.50;99526.81;5032184;28;20041;-63
2022/03/31 00:40:44;;;;;;;34.13;19.83;;;;;;;13.65;66.71;99531.38;5030936;28;20091;-64
2022/03/31 00:43:11;;;;;;;30.83;18.15;;;;;;;13.64;66.85;99522.66;5032160;28;20103;-64
2022/03/31 00:45:51;;;;;;;30.73;19.27;;;;;;;13.65;67.08;99523.47;5032343;28;20045;-63
2022/03/31 00:48:19;;;;;;;32.13;19.75;;;;;;;13.62;67.26;99519.31;5032111;28;20444;-64
2022/03/31 00:50:47;;;;;;;34.75;19.77;;;;;;;13.62;67.30;99514.03;5032294;28;20124;-63
2022/03/31 00:53:14;;;;;;;34.63;19.15;;;;;;;13.62;67.41;99510.56;5032298;28;20071;-63
2022/03/31 00:55:55;;;;;;;31.38;20.85;;;;;;;13.60;67.61;99505.44;5032280;28;20131;-63
2022/03/31 00:58:22;;;;;;;34.63;20.98;;;;;;;13.60;67.66;99502.81;5030975;28;20045;-64
2022/03/31 01:00:49;;;;;;;36.90;21.45;;;;;;;13.58;67.87;99504.75;5032256;28;20095;-63
2022/03/31 01:03:17;;;;;;;32.13;21.45;;;;;;;13.58;68.02;99499.47;5032131;28;20064;-63
2022/03/31 01:05:44;;;;;;;37.53;21.77;;;;;;;13.57;68.10;99492.53;5032000;28;20045;-63
2022/03/31 01:08:11;;;;;;;32.42;20.98;;;;;;;13.57;67.94;99481.16;5032013;28;20482;-63
2022/03/31 01:10:38;;;;;;;33.92;21.05;;;;;;;13.58;68.32;99481.00;5031881;28;20077;-64
2022/03/31 01:13:07;;;;;;;34.72;21.02;;;;;;;13.57;68.31;99476.72;5032011;28;20088;-63
2022/03/31 01:15:34;;;;;;;34.67;20.75;;;;;;;13.54;68.30;99475.19;5030975;28;20450;-63
2022/03/31 01:18:00;;;;;;;34.50;20.52;;;;;;;13.53;68.43;99477.97;5032167;28;20045;-64
2022/03/31 01:20:27;;;;;;;31.15;21.15;;;;;;;13.53;68.50;99468.28;5031779;28;20041;-63
2022/03/31 01:22:54;;;;;;;35.28;21.70;;;;;;;13.52;68.40;99463.97;5031939;28;20046;-63
2022/03/31 01:25:20;;;;;;;32.25;22.15;;;;;;;13.53;68.60;99470.91;5031855;28;20045;-64
2022/03/31 01:27:48;;;;;;;34.65;22.80;;;;;;;13.53;68.68;99465.63;5031708;28;20060;-64
2022/03/31 01:30:18;;;;;;;34.50;21.67;;;;;;;13.52;68.70;99456.06;5035471;28;20096;-63
2022/03/31 01:32:46;;;;;;;35.08;22.55;;;;;;;13.50;68.93;99452.72;5034463;28;20375;-63
2022/03/31 01:35:14;;;;;;;36.65;22.10;;;;;;;13.47;69.06;99450.38;5035678;28;20049;-63
2022/03/31 01:37:41;;;;;;;36.28;22.42;;;;;;;13.46;69.13;99448.69;5035177;28;20529;-63
2022/03/31 01:40:09;;;;;;;33.70;22.23;;;;;;;13.43;69.06;99448.94;5035229;28;20053;-64
2022/03/31 01:42:37;;;;;;;35.67;21.95;;;;;;;13.44;69.27;99441.91;5035255;28;20041;-64
2022/03/31 01:45:07;;;;;;;35.60;22.00;;;;;;;13.41;69.29;99447.44;5035285;28;20052;-64
2022/03/31 01:47:33;;;;;;;36.45;21.58;;;;;;;13.42;69.24;99441.19;5035351;28;20052;-63
2022/03/31 01:50:01;;;;;;;32.05;21.27;;;;;;;13.38;69.55;99433.56;5034378;28;20041;-63
2022/03/31 01:52:29;;;;;;;33.42;20.48;;;;;;;13.38;69.68;99430.09;5035183;28;20475;-65
2022/03/31 01:54:56;;;;;;;34.05;21.15;;;;;;;13.38;69.60;99419.56;5035264;28;20057;-64
2022/03/31 01:57:23;;;;;;;34.25;20.75;;;;;;;13.36;69.69;99418.84;5035149;28;20046;-63
2022/03/31 01:59:49;;;;;;;37.85;21.45;;;;;;;13.35;69.89;99415.34;5035186;28;20437;-64
2022/03/31 02:02:16;;;;;;;39.15;22.63;;;;;;;13.35;69.96;99411.91;5034974;28;20065;-63
2022/03/31 02:04:43;;;;;;;34.70;22.45;;;;;;;13.34;70.01;99403.16;5034021;28;20041;-64
2022/03/31 02:07:10;;;;;;;37.35;22.42;;;;;;;13.34;69.92;99405.78;5034909;28;20045;-63
2022/03/31 02:09:37;;;;;;;38.72;22.58;;;;;;;13.34;69.88;99392.63;5034831;28;20049;-63
2022/03/31 02:12:05;;;;;;;34.85;21.85;;;;;;;13.34;69.99;99402.31;5034839;28;20053;-63
2022/03/31 02:14:33;;;;;;;37.53;21.50;;;;;;;13.33;70.37;99388.34;5034699;28;20417;-63
2022/03/31 02:16:59;;;;;;;33.42;20.98;;;;;;;13.31;70.26;99386.81;5034901;28;20049;-63
2022/03/31 02:19:26;;;;;;;29.90;19.48;;;;;;;13.33;70.40;99384.84;5034587;28;20053;-63
2022/03/31 02:21:55;;;;;;;35.45;20.60;;;;;;;13.32;70.31;99381.41;5033407;28;20490;-63
2022/03/31 02:24:21;;;;;;;31.45;19.77;;;;;;;13.32;70.21;99381.41;5034433;28;20494;-64
2022/03/31 02:26:48;;;;;;;36.05;20.17;;;;;;;13.32;70.19;99377.91;5034648;28;20046;-64
2022/03/31 02:29:15;;;;;;;29.70;19.35;;;;;;;13.29;70.27;99375.56;5034557;28;20080;-63
2022/03/31 02:31:42;;;;;;;29.10;18.52;;;;;;;13.28;70.22;99369.47;5034502;28;20096;-64
2022/03/31 02:34:09;;;;;;;31.23;18.45;;;;;;;13.29;70.35;99363.22;5034500;28;20072;-63
2022/03/31 02:36:36;;;;;;;28.77;17.27;;;;;;;13.27;70.29;99352.00;5034183;28;20076;-63
2022/03/31 02:39:03;;;;;;;32.22;17.58;;;;;;;13.28;70.52;99345.78;5033207;28;20058;-63
2022/03/31 02:41:29;;;;;;;30.08;16.65;;;;;;;13.27;70.69;99337.97;5033354;28;20049;-64
2022/03/31 02:43:56;;;;;;;30.65;15.77;;;;;;;13.27;70.52;99337.97;5034128;28;20053;-64
2022/03/31 02:46:25;;;;;;;30.63;15.63;;;;;;;13.26;70.78;99331.06;5034187;28;20041;-63
2022/03/31 02:48:53;;;;;;;28.73;14.52;;;;;;;13.25;70.49;99324.94;5034253;28;20056;-64
2022/03/31 02:51:20;;;;;;;28.02;13.75;;;;;;;13.25;70.33;99318.88;5034112;28;20042;-63
2022/03/31 02:56:32;;;;;;;25.73;13.15;;;;;;;13.21;70.27;99311.22;5032982;28;20050;-64
2022/03/31 02:58:59;;;;;;;23.30;12.57;;;;;;;13.19;70.16;99301.81;5034016;28;20049;-63
2022/03/31 03:01:29;;;;;;;27.13;12.82;;;;;;;13.18;70.25;99303.63;5033944;28;20509;-63
2022/03/31 03:04:01;;;;;;;25.05;12.32;;;;;;;13.18;70.06;99297.50;5028004;28;20049;-63
2022/03/31 03:06:28;;;;;;;25.58;12.38;;;;;;;13.18;69.96;99298.34;5030264;28;20049;-63
2022/03/31 03:08:55;;;;;;;21.38;12.23;;;;;;;13.18;70.05;99284.31;5030278;28;20052;-63
2022/03/31 03:11:22;;;;;;;27.33;12.95;;;;;;;13.14;69.99;99285.59;5030595;28;20056;-63
2022/03/31 03:13:49;;;;;;;23.38;12.77;;;;;;;13.15;70.00;99285.44;5029407;28;20041;-64
2022/03/31 03:16:16;;;;;;;29.15;12.40;;;;;;;13.15;70.08;99288.06;5030798;28;20861;-64
2022/03/31 03:18:43;;;;;;;24.10;11.95;;;;;;;13.13;70.28;99284.78;5030249;28;20053;-64
2022/03/31 03:21:10;;;;;;;25.50;12.75;;;;;;;13.12;69.99;99277.84;5030240;28;21042;-63
2022/03/31 03:23:39;;;;;;;24.00;13.98;;;;;;;13.11;70.13;99278.78;5030366;28;20049;-63
2022/03/31 03:26:07;;;;;;;25.42;11.88;;;;;;;13.10;70.13;99282.41;5030316;28;20081;-64
2022/03/31 03:28:37;;;;;;;24.63;11.63;;;;;;;13.09;70.27;99278.13;5029160;28;20050;-63
2022/03/31 03:31:05;;;;;;;22.48;12.38;;;;;;;13.10;70.32;99274.50;5030104;28;20045;-63
2022/03/31 03:33:32;;;;;;;27.27;12.88;;;;;;;13.10;70.38;99273.69;5029934;28;20144;-64
2022/03/31 03:36:00;;;;;;;20.42;12.05;;;;;;;13.12;70.03;99266.47;5030087;28;20114;-64
2022/03/31 03:38:27;;;;;;;20.27;11.55;;;;;;;13.11;70.18;99264.81;5029647;28;20049;-64
2022/03/31 03:40:54;;;;;;;25.67;13.30;;;;;;;13.09;70.33;99251.78;5030141;28;20045;-64
2022/03/31 03:43:21;;;;;;;23.25;12.23;;;;;;;13.05;70.25;99253.00;5028899;28;20049;-64
2022/03/31 03:45:47;;;;;;;25.02;13.10;;;;;;;13.05;70.39;99253.88;5030302;28;20474;-64
2022/03/31 03:48:14;;;;;;;23.02;13.05;;;;;;;13.04;70.38;99256.66;5029961;28;20099;-63
2022/03/31 03:50:41;;;;;;;28.88;12.73;;;;;;;13.04;70.23;99248.75;5029827;28;20061;-64
2022/03/31 03:53:08;;;;;;;24.95;11.88;;;;;;;13.03;70.48;99253.16;5029801;28;20049;-63
2022/03/31 03:55:37;;;;;;;24.13;12.10;;;;;;;13.03;70.37;99258.44;5029648;28;20056;-63
2022/03/31 03:58:03;;;;;;;24.67;12.60;;;;;;;13.00;70.49;99253.44;5029740;28;20229;-64
2022/03/31 04:00:31;;;;;;;27.50;12.70;;;;;;;12.99;70.52;99251.78;5028602;28;20053;-63
2022/03/31 04:02:58;;;;;;;28.38;13.15;;;;;;;12.93;70.63;99251.53;5029557;28;20053;-63
2022/03/31 04:05:25;;;;;;;23.60;12.20;;;;;;;12.93;70.57;99254.97;5029546;28;20099;-63
2022/03/31 04:07:52;;;;;;;25.55;13.40;;;;;;;12.86;70.86;99244.16;5029755;28;20049;-63
2022/03/31 04:10:18;;;;;;;25.40;12.98;;;;;;;12.84;70.80;99248.72;5029674;28;20506;-64
2022/03/31 04:12:45;;;;;;;26.50;14.27;;;;;;;12.85;70.92;99246.91;5029731;28;20045;-63
2022/03/31 04:15:15;;;;;;;26.27;14.32;;;;;;;12.89;70.82;99245.69;5029398;28;20077;-63
2022/03/31 04:17:42;;;;;;;30.63;15.25;;;;;;;12.91;70.71;99241.09;5027957;28;20049;-63
2022/03/31 04:20:13;;;;;;;29.58;16.45;;;;;;;12.89;70.76;99235.97;5029229;28;20045;-63
2022/03/31 04:22:41;;;;;;;34.60;18.23;;;;;;;12.84;71.09;99234.75;5029263;28;20053;-64
2022/03/31 04:25:11;;;;;;;36.25;19.60;;;;;;;12.87;71.02;99229.19;5028862;28;20453;-63
2022/03/31 04:27:38;;;;;;;36.45;20.42;;;;;;;12.86;71.09;99230.16;5029292;28;20104;-63
2022/03/31 04:30:08;;;;;;;35.45;20.70;;;;;;;12.87;70.89;99230.03;5029097;28;20041;-63
2022/03/31 04:32:35;;;;;;;37.13;21.60;;;;;;;12.69;71.42;99223.81;5028997;28;20045;-64
2022/03/31 04:35:03;;;;;;;32.85;22.05;;;;;;;12.70;71.44;99223.66;5028195;28;20107;-65
2022/03/31 04:37:30;;;;;;;34.40;22.85;;;;;;;12.61;71.78;99221.88;5028973;28;20092;-63
2022/03/31 04:39:56;;;;;;;35.42;23.65;;;;;;;12.51;72.11;99221.84;5028967;28;20096;-63
2022/03/31 04:42:23;;;;;;;30.63;22.48;;;;;;;12.57;72.04;99221.31;5029088;28;20053;-63
2022/03/31 04:44:50;;;;;;;37.53;24.00;;;;;;;12.61;71.88;99229.75;5029104;28;20049;-63
2022/03/31 04:47:16;;;;;;;37.47;24.63;;;;;;;12.64;71.86;99226.03;5029320;28;20045;-63
2022/03/31 04:49:43;;;;;;;34.90;23.00;;;;;;;12.72;71.70;99226.16;5028002;28;20082;-64
2022/03/31 04:52:11;;;;;;;34.40;22.23;;;;;;;12.71;71.73;99220.06;5028812;28;20053;-64
2022/03/31 04:54:43;;;;;;;38.45;24.83;;;;;;;12.77;71.69;99223.94;5029002;28;20041;-63
2022/03/31 04:57:15;;;;;;;41.47;25.08;;;;;;;12.81;71.65;99222.69;5028845;28;20048;-63
2022/03/31 04:59:42;;;;;;;38.70;25.20;;;;;;;12.80;71.52;99231.56;5028602;28;20100;-63
2022/03/31 05:02:10;;;;;;;31.75;21.27;;;;;;;12.68;72.46;99224.75;5028345;28;20054;-63
2022/03/31 05:04:42;;;;;;;11.65;7.63;;;;;;;13.39;70.82;99213.91;5031372;28;20053;-63
2022/03/31 05:07:14;;;;;;;36.78;25.27;;;;;;;13.44;69.92;99218.75;5031560;28;20041;-64
2022/03/31 05:09:41;;;;;;;35.70;25.17;;;;;;;13.15;70.99;99214.31;5032580;28;20049;-65
2022/03/31 05:12:09;;;;;;;32.45;23.98;;;;;;;13.11;71.12;99220.84;5032864;28;20045;-65
2022/03/31 05:14:36;;;;;;;38.00;25.50;;;;;;;13.06;71.17;99217.81;5032353;28;20049;-63
2022/03/31 05:17:03;;;;;;;38.15;25.67;;;;;;;13.01;71.42;99215.59;5032697;28;20045;-64
2022/03/31 05:19:30;;;;;;;35.22;24.02;;;;;;;12.99;71.31;99216.72;5032299;28;20045;-63
2022/03/31 05:21:56;;;;;;;42.40;25.58;;;;;;;12.86;71.54;99214.38;5031197;28;20049;-63
2022/03/31 05:24:23;;;;;;;37.50;24.77;;;;;;;12.80;72.08;99209.66;5032048;28;20048;-63
2022/03/31 05:26:53;;;;;;;37.63;25.30;;;;;;;12.80;71.95;99210.50;5032045;28;20559;-63
2022/03/31 05:29:21;;;;;;;33.47;23.33;;;;;;;12.84;71.89;99206.63;5032211;28;20047;-63
2022/03/31 05:31:48;;;;;;;33.72;25.02;;;;;;;12.84;71.82;99203.97;5032560;28;20080;-64
2022/03/31 05:34:15;;;;;;;34.28;23.52;;;;;;;12.79;72.18;99206.19;5031859;28;20045;-64
2022/03/31 05:36:41;;;;;;;37.30;24.45;;;;;;;12.80;71.91;99204.38;5030376;28;20103;-63
2022/03/31 05:39:10;;;;;;;35.67;23.33;;;;;;;12.80;72.01;99210.50;5031423;28;20056;-62
2022/03/31 05:41:37;;;;;;;34.22;22.48;;;;;;;12.84;71.88;99209.25;5031210;28;20573;-62
2022/03/31 05:44:04;;;;;;;33.00;22.73;;;;;;;12.85;71.97;99207.44;5032129;28;20053;-63
2022/03/31 05:46:31;;;;;;;35.92;24.35;;;;;;;12.80;72.08;99215.75;5031893;28;20386;-63
2022/03/31 05:48:58;;;;;;;33.65;22.35;;;;;;;12.82;72.16;99207.72;5032054;28;20045;-63
2022/03/31 05:51:25;;;;;;;58.83;14.13;;;;;;;12.88;72.45;99208.00;5031465;28;20544;-62
2022/03/31 05:53:51;;;;;;;31.80;20.73;;;;;;;13.27;71.05;99203.63;5029978;28;20045;-63
2022/03/31 05:56:19;;;;;;;32.75;22.33;;;;;;;13.14;71.72;99204.78;5031320;28;20046;-62
2022/03/31 05:58:45;;;;;;;33.30;21.83;;;;;;;12.94;71.99;99200.50;5031215;28;20486;-62
2022/03/31 06:01:12;;;;;;;35.72;23.20;;;;;;;12.90;72.25;99200.78;5031684;28;20065;-62
2022/03/31 06:03:39;;;;;;;31.67;22.15;;;;;;;12.89;72.30;99191.22;5031785;28;20045;-62
2022/03/31 06:06:06;;;;;;;34.75;21.30;;;;;;;12.83;72.06;99197.03;5031587;28;20045;-62
2022/03/31 06:08:32;;;;;;;37.00;22.67;;;;;;;12.96;71.73;99198.56;5031547;28;20042;-62
2022/03/31 06:10:59;;;;;;;35.22;23.25;;;;;;;12.94;71.80;99192.59;5029903;28;20046;-63
2022/03/31 06:13:26;;;;;;;31.50;21.98;;;;;;;12.91;72.21;99204.25;5031620;28;20046;-63
2022/03/31 06:15:54;;;;;;;34.60;22.20;;;;;;;12.80;72.18;99196.50;5030090;28;20037;-62
2022/03/31 06:18:23;;;;;;;33.40;23.08;;;;;;;12.75;72.49;99196.94;5030385;28;20053;-66
2022/03/31 06:20:50;;;;;;;31.90;21.38;;;;;;;12.73;72.52;99193.59;5030479;28;20045;-66
2022/03/31 06:23:16;;;;;;;30.23;20.65;;;;;;;12.76;72.44;99193.34;5030800;28;20091;-67
2022/03/31 06:25:44;;;;;;;35.80;21.80;;;;;;;12.73;72.31;99197.06;5030265;28;20077;-63
2022/03/31 06:28:14;;;;;;;30.35;20.70;;;;;;;12.71;72.51;99198.19;5029251;28;20445;-67
2022/03/31 06:30:40;;;;;;;32.63;21.15;;;;;;;12.74;72.37;99195.25;5028538;28;20045;-63
2022/03/31 06:33:08;;;;;;;28.50;19.20;;;;;;;12.71;72.58;99196.38;5028817;28;20088;-64
2022/03/31 06:35:36;;;;;;;30.58;20.27;;;;;;;12.77;72.35;99191.53;5029356;28;20053;-63
2022/03/31 06:38:03;;;;;;;35.92;20.77;;;;;;;12.80;72.27;99186.81;5027336;28;20049;-64
2022/03/31 06:40:31;;;;;;;34.92;21.77;;;;;;;12.67;72.41;99178.34;5024834;28;20041;-63
2022/03/31 06:42:58;;;;;;;30.17;19.92;;;;;;;12.74;72.25;99182.09;5030283;28;20405;-62
2022/03/31 06:45:25;;;;;;;31.40;21.15;;;;;;;12.79;72.53;99185.16;5029725;28;20124;-63
2022/03/31 06:47:55;;;;;;;35.20;20.45;;;;;;;12.80;72.46;99185.97;5030936;28;20041;-63
2022/03/31 06:50:26;;;;;;;34.47;20.80;;;;;;;12.77;72.47;99181.00;5029989;28;20444;-62
2022/03/31 06:52:56;;;;;;;32.28;20.60;;;;;;;12.69;72.54;99176.44;5028985;28;20049;-65
2022/03/31 06:55:23;;;;;;;37.35;21.40;;;;;;;12.69;72.36;99166.72;5024196;28;20073;-62
2022/03/31 06:57:50;;;;;;;33.47;21.38;;;;;;;12.79;72.46;99171.16;5024779;28;20038;-65
2022/03/31 07:00:16;;;;;;;35.45;21.90;;;;;;;12.80;72.05;99163.13;5027878;28;20053;-63
2022/03/31 07:02:43;;;;;;;37.67;21.70;;;;;;;12.84;72.28;99174.22;5028699;28;20049;-63
2022/03/31 07:05:14;;;;;;;39.50;22.58;;;;;;;12.88;71.99;99167.69;5028967;28;20144;-65
2022/03/31 07:07:41;;;;;;;39.80;22.08;;;;;;;12.88;72.06;99165.88;5027248;28;20489;-62
2022/03/31 07:10:08;;;;;;;38.38;23.88;;;;;;;12.90;72.21;99163.94;5029452;28;20080;-63
2022/03/31 07:12:39;;;;;;;34.97;21.80;;;;;;;13.03;71.98;99154.91;5029510;28;20046;-65
2022/03/31 07:15:08;;;;;;;38.03;22.30;;;;;;;13.06;71.73;99165.16;5028268;28;20048;-65
2022/03/31 07:17:35;;;;;;;37.25;21.40;;;;;;;13.11;71.79;99157.66;5029253;28;20383;-63
2022/03/31 07:20:03;;;;;;;37.45;25.20;;;;;;;13.22;71.70;99156.66;5028693;28;20557;-66
2022/03/31 07:22:29;;;;;;;59.70;42.45;;;;;;;13.18;71.86;99157.91;5029247;28;20048;-63
2022/03/31 07:24:56;;;;;;;47.67;28.02;;;;;;;13.18;71.63;99150.84;5028771;28;20088;-64
2022/03/31 07:27:22;;;;;;;43.63;24.80;;;;;;;13.20;72.01;99153.34;5028985;28;20049;-64
2022/03/31 07:29:49;;;;;;;33.92;23.15;;;;;;;13.22;71.85;99151.41;5028499;28;20092;-63
2022/03/31 07:32:16;;;;;;;37.40;21.75;;;;;;;13.32;71.70;99146.06;5027412;28;20041;-64
2022/03/31 07:34:42;;;;;;;36.47;25.27;;;;;;;13.35;72.13;99148.44;5029171;28;20107;-65
2022/03/31 07:37:09;;;;;;;42.35;24.40;;;;;;;13.39;71.92;99147.19;5028766;28;20045;-63
2022/03/31 07:39:38;;;;;;;48.92;29.33;;;;;;;13.33;72.20;99147.75;5028685;28;20107;-65
2022/03/31 07:42:05;;;;;;;34.25;22.90;;;;;;;13.45;71.84;99143.16;5029569;28;20041;-63
2022/03/31 07:44:31;;;;;;;38.35;24.25;;;;;;;13.46;72.00;99153.56;5029590;28;20410;-63
2022/03/31 07:46:58;;;;;;;29.88;20.10;;;;;;;13.57;71.79;99144.63;5028852;28;20063;-64
2022/03/31 07:49:25;;;;;;;45.83;22.48;;;;;;;13.52;71.66;99142.44;5027691;28;20124;-63
2022/03/31 07:51:51;;;;;;;32.00;20.75;;;;;;;13.60;71.72;99144.34;5029477;28;20423;-63
2022/03/31 07:54:18;;;;;;;35.55;21.27;;;;;;;13.67;71.94;99134.03;5029473;28;20056;-62
2022/03/31 07:56:45;;;;;;;64.28;39.15;;;;;;;13.65;71.77;99136.81;5029023;28;20049;-64
2022/03/31 07:59:12;;;;;;;34.63;20.48;;;;;;;13.73;71.72;99127.38;5027613;28;20084;-62
2022/03/31 08:01:39;;;;;;;56.05;35.47;;;;;;;13.70;72.06;99128.50;5028642;28;20045;-63
2022/03/31 08:04:06;;;;;;;71.80;43.40;;;;;;;13.80;71.81;99128.41;5028616;28;20038;-63
2022/03/31 08:06:33;;;;;;;48.22;27.65;;;;;;;13.91;71.63;99122.13;5027470;28;20080;-62
2022/03/31 08:09:00;;;;;;;45.20;27.88;;;;;;;13.90;71.42;99123.91;5028095;28;20041;-63
2022/03/31 08:11:27;;;;;;;51.42;30.52;;;;;;;13.88;71.40;99123.25;5027922;28;20489;-63
2022/03/31 08:13:53;;;;;;;17.02;8.32;;;;;;;14.20;71.66;99119.28;5028710;28;20045;-63
2022/03/31 08:16:20;;;;;;;19.58;9.43;;;;;;;14.67;69.58;99120.84;5028553;28;20069;-63
2022/03/31 08:18:47;;;;;;;19.52;9.32;;;;;;;14.99;68.74;99114.94;5026557;28;20048;-65
2022/03/31 08:21:14;;;;;;;27.17;15.18;;;;;;;15.22;68.45;99108.31;5022206;28;20049;-66
2022/03/31 08:23:40;;;;;;;22.13;13.57;;;;;;;15.32;67.82;99120.41;5027889;28;20114;-66
2022/03/31 08:26:07;;;;;;;25.65;14.80;;;;;;;15.50;67.51;99117.72;5011517;28;20053;-67
2022/03/31 08:28:36;;;;;;;26.63;14.05;;;;;;;15.59;67.86;99120.38;5009003;28;20046;-66
2022/03/31 08:31:02;;;;;;;28.50;15.10;;;;;;;15.73;67.12;99116.28;5010476;28;20391;-66
2022/03/31 08:33:29;;;;;;;23.77;13.38;;;;;;;15.86;67.21;99111.41;5009370;28;20049;-67
2022/03/31 08:35:56;;;;;;;32.00;14.48;;;;;;;15.94;67.41;99110.59;5008765;28;20192;-69
2022/03/31 08:38:22;;;;;;;29.90;16.35;;;;;;;15.95;67.22;99099.84;5009748;28;20928;-65
2022/03/31 08:40:50;;;;;;;29.85;18.20;;;;;;;15.98;66.91;99104.00;5028193;28;20048;-67
2022/03/31 08:43:19;;;;;;;36.78;15.85;;;;;;;16.04;66.45;99103.34;5027893;28;20048;-66
2022/03/31 08:45:54;;;;;;;32.20;15.20;;;;;;;16.12;66.44;99108.63;5028050;28;20107;-68
2022/03/31 08:48:26;;;;;;;31.42;14.82;;;;;;;16.14;66.16;99108.50;5027569;28;20052;-66
2022/03/31 08:50:53;;;;;;;27.02;14.15;;;;;;;16.12;65.98;99105.16;5028842;28;20132;-64
2022/03/31 08:53:20;;;;;;;23.27;13.73;;;;;;;16.22;65.76;99107.66;5028616;28;20084;-65
2022/03/31 08:55:47;;;;;;;26.50;13.40;;;;;;;16.22;65.46;99107.66;5027927;28;20486;-64
2022/03/31 08:58:13;;;;;;;33.63;20.30;;;;;;;16.23;64.91;99099.56;5026157;28;20045;-65
2022/03/31 09:00:41;;;;;;;25.25;13.55;;;;;;;16.29;65.13;99104.19;5029481;28;20054;-63
2022/03/31 09:03:08;;;;;;;26.85;13.75;;;;;;;16.37;64.74;99097.25;5028210;28;20037;-66
2022/03/31 09:05:41;;;;;;;28.27;15.90;;;;;;;16.37;64.49;99100.72;5026112;28;20076;-66
2022/03/31 09:08:16;;;;;;;37.65;20.17;;;;;;;16.43;63.96;99102.72;5024824;28;20045;-66
2022/03/31 09:10:53;;;;;;;31.88;19.05;;;;;;;16.50;63.54;99094.94;5027790;28;20052;-64
2022/03/31 09:13:21;;;;;;;27.90;15.23;;;;;;;16.63;63.11;99097.91;5026862;28;20493;-65
2022/03/31 09:16:11;;;;;;;29.08;16.95;;;;;;;16.97;61.66;99080.16;5027909;28;20045;-64
2022/03/31 09:18:39;;;;;;;24.77;16.08;;;;;;;17.32;60.69;99072.78;5027162;28;20049;-65
2022/03/31 09:21:10;;;;;;;27.15;13.50;;;;;;;17.61;59.33;99074.78;5024943;28;20055;-64
2022/03/31 09:23:46;;;;;;;21.00;12.90;;;;;;;17.79;58.88;99068.41;5027981;28;20049;-64
2022/03/31 09:26:16;;;;;;;21.63;12.48;;;;;;;17.92;58.20;99063.31;5027983;28;20049;-65
2022/03/31 09:28:44;;;;;;;27.65;15.48;;;;;;;18.01;57.64;99060.66;5025494;28;20041;-65
2022/03/31 09:31:12;;;;;;;23.90;12.68;;;;;;;17.94;58.22;99060.50;5027593;28;20038;-65
2022/03/31 09:33:44;;;;;;;25.20;15.93;;;;;;;17.94;57.77;99058.69;5027357;28;20045;-65
2022/03/31 09:36:22;;;;;;;21.67;12.52;;;;;;;17.87;57.49;99055.06;5028180;28;20049;-64
2022/03/31 09:38:54;;;;;;;21.25;14.13;;;;;;;17.78;57.76;99056.94;5027402;28;20057;-64
2022/03/31 09:41:20;;;;;;;37.13;23.95;;;;;;;17.88;57.63;99055.91;5027558;28;20049;-64
2022/03/31 09:43:49;;;;;;;30.23;19.45;;;;;;;17.98;56.94;99053.88;5027011;28;20071;-63
2022/03/31 09:46:24;;;;;;;34.60;20.38;;;;;;;17.82;57.52;99046.00;5028307;28;20050;-63
2022/03/31 09:48:58;;;;;;;34.72;21.08;;;;;;;17.68;57.98;99040.41;5027228;28;20045;-63
2022/03/31 09:51:25;;;;;;;33.17;21.02;;;;;;;17.70;57.94;99043.72;5031461;28;20050;-63
2022/03/31 09:53:53;;;;;;;39.80;24.65;;;;;;;17.75;57.39;99038.72;5031224;28;20057;-63
2022/03/31 09:56:23;;;;;;;47.15;30.20;;;;;;;17.40;57.59;99048.84;5031187;28;20414;-63
2022/03/31 09:58:51;;;;;;;41.08;21.92;;;;;;;17.13;57.90;99044.84;5030608;28;20052;-64
2022/03/31 10:01:18;;;;;;;26.45;16.30;;;;;;;17.05;57.49;99040.41;5034853;28;20446;-63
2022/03/31 10:03:45;;;;;;;20.85;9.93;;;;;;;16.71;57.83;99044.09;5031137;28;20045;-64
2022/03/31 10:06:13;;;;;;;19.77;8.70;;;;;;;16.52;57.61;99047.94;5030980;28;20409;-63
2022/03/31 10:08:42;;;;;;;14.55;8.02;;;;;;;16.32;57.48;99047.44;5030200;28;20084;-63
2022/03/31 10:11:17;;;;;;;15.75;8.27;;;;;;;16.02;58.12;99041.00;5030109;28;20037;-64
2022/03/31 10:13:57;;;;;;;18.40;9.05;;;;;;;15.85;58.02;99045.44;5030704;28;20045;-64
2022/03/31 10:16:59;;;;;;;15.45;8.45;;;;;;;15.75;57.74;99032.34;5031319;28;20041;-63
2022/03/31 10:19:37;;;;;;;15.77;8.50;;;;;;;15.54;58.29;99028.34;5030389;28;20053;-63
2022/03/31 10:25:05;;;;;;;30.83;20.65;;;;;;;15.51;57.63;99026.84;5028983;28;20042;-63
2022/03/31 10:27:37;;;;;;;24.75;15.18;;;;;;;15.50;57.44;99024.34;5030622;28;20099;-62
2022/03/31 10:30:16;;;;;;;18.45;12.52;;;;;;;15.48;57.24;99021.84;5030424;28;20045;-63
2022/03/31 10:32:53;;;;;;;17.52;8.95;;;;;;;15.47;57.17;99022.84;5030814;28;20049;-62
2022/03/31 10:35:31;;;;;;;19.80;13.60;;;;;;;15.42;57.35;99011.94;5029812;28;20085;-63
2022/03/31 10:38:17;;;;;;;36.15;21.40;;;;;;;15.41;57.00;99014.75;5030722;28;20054;-63
2022/03/31 10:40:49;;;;;;;18.58;9.70;;;;;;;15.35;57.10;99010.94;5030815;28;20046;-63
2022/03/31 10:43:31;;;;;;;20.60;10.05;;;;;;;15.54;56.57;99004.53;5030834;28;20410;-61
2022/03/31 10:46:01;;;;;;;19.35;11.45;;;;;;;15.39;57.04;99012.25;5030636;28;20081;-62
2022/03/31 10:48:36;;;;;;;31.83;19.35;;;;;;;15.29;57.13;99007.09;5029966;28;20041;-62
2022/03/31 10:51:07;;;;;;;41.00;24.23;;;;;;;15.20;57.75;99000.16;5029432;28;20421;-62
2022/03/31 10:53:36;;;;;;;39.65;21.23;;;;;;;15.13;58.14;98999.13;5030391;28;20052;-65
2022/03/31 10:56:14;;;;;;;19.63;10.65;;;;;;;15.04;58.61;98998.25;5030441;28;20042;-62
2022/03/31 10:58:41;;;;;;;29.20;20.63;;;;;;;14.97;58.90;99002.50;5029596;28;20088;-62
2022/03/31 11:01:10;;;;;;;31.83;17.25;;;;;;;15.14;59.57;98995.50;5029143;28;20045;-64
2022/03/31 11:03:37;;;;;;;60.17;31.23;;;;;;;15.07;60.21;98995.31;5042271;28;20115;-62
2022/03/31 11:06:08;;;;;;;53.60;32.42;;;;;;;14.86;60.69;98998.34;5041476;28;20087;-61
2022/03/31 11:08:46;;;;;;;63.90;31.50;;;;;;;14.73;61.38;98987.38;5028585;28;20864;-63
2022/03/31 11:11:30;;;;;;;35.15;18.20;;;;;;;15.31;60.52;98991.94;5028672;28;20045;-63
2022/03/31 11:13:58;;;;;;;74.90;39.53;;;;;;;15.19;61.04;98986.09;5024598;28;20115;-62
2022/03/31 11:16:37;;;;;;;135.15;94.03;;;;;;;14.87;62.15;98992.09;5029861;28;20041;-62
2022/03/31 11:19:05;;;;;;;87.50;54.90;;;;;;;14.72;62.52;98989.19;5029457;28;20128;-61
2022/03/31 11:21:39;;;;;;;45.17;24.20;;;;;;;14.52;63.34;98992.03;5028882;28;20059;-63
2022/03/31 11:24:07;;;;;;;68.05;36.38;;;;;;;14.47;63.54;98988.19;5029534;28;20049;-62
2022/03/31 11:26:41;;;;;;;60.90;29.73;;;;;;;14.32;63.91;98993.22;5029028;28;20111;-62
2022/03/31 11:29:14;;;;;;;53.95;27.30;;;;;;;14.33;64.20;98987.78;5028620;28;20042;-62